<?xml version="1.0" encoding="UTF-8" standalone="no" ?>
<gpx xmlns="http://www.topografix.com/GPX/1/1" xmlns:xsi="http://www.w3.org/2001/XMLSchema-instance" xsi:schemaLocation="http://www.topografix.com/GPX/1/1 http://www.topografix.com/GPX/1/1/gpx.xsd" version="1.1" creator="VisuGPX - https://www.visugpx.com">
  <metadata>
    <name>GTV jour 1</name>
    <desc><![CDATA[GTV jour 1]]></desc>
  </metadata>
  <trk>
    <name><![CDATA[GTV 7JUN]]></name>
    <trkseg>
      <trkpt lat="46.11307" lon="5.82558">
        <ele>396.2</ele>
        <time>2013-06-07T17:22:05Z</time>
      </trkpt>
      <trkpt lat="46.1131" lon="5.82555">
        <ele>390.43</ele>
        <time>2013-06-07T17:22:22Z</time>
      </trkpt>
      <trkpt lat="46.11316" lon="5.8255">
        <ele>382.26</ele>
        <time>2013-06-07T17:22:37Z</time>
      </trkpt>
      <trkpt lat="46.1133" lon="5.82545">
        <ele>380.34</ele>
        <time>2013-06-07T17:22:49Z</time>
      </trkpt>
      <trkpt lat="46.11349" lon="5.8254">
        <ele>376.97</ele>
        <time>2013-06-07T17:23:01Z</time>
      </trkpt>
      <trkpt lat="46.11369" lon="5.82529">
        <ele>375.05</ele>
        <time>2013-06-07T17:23:15Z</time>
      </trkpt>
      <trkpt lat="46.1139" lon="5.82509">
        <ele>371.69</ele>
        <time>2013-06-07T17:23:30Z</time>
      </trkpt>
      <trkpt lat="46.11393" lon="5.82506">
        <ele>371.69</ele>
        <time>2013-06-07T17:23:32Z</time>
      </trkpt>
      <trkpt lat="46.11404" lon="5.82485">
        <ele>373.61</ele>
        <time>2013-06-07T17:23:46Z</time>
      </trkpt>
      <trkpt lat="46.11408" lon="5.82473">
        <ele>374.57</ele>
        <time>2013-06-07T17:23:56Z</time>
      </trkpt>
      <trkpt lat="46.11409" lon="5.82473">
        <ele>374.57</ele>
        <time>2013-06-07T17:23:58Z</time>
      </trkpt>
      <trkpt lat="46.11418" lon="5.82482">
        <ele>374.57</ele>
        <time>2013-06-07T17:24:09Z</time>
      </trkpt>
      <trkpt lat="46.11421" lon="5.82483">
        <ele>374.09</ele>
        <time>2013-06-07T17:24:28Z</time>
      </trkpt>
      <trkpt lat="46.11418" lon="5.82478">
        <ele>374.09</ele>
        <time>2013-06-07T17:24:37Z</time>
      </trkpt>
      <trkpt lat="46.11409" lon="5.82477">
        <ele>374.09</ele>
        <time>2013-06-07T17:24:42Z</time>
      </trkpt>
      <trkpt lat="46.11392" lon="5.82498">
        <ele>374.57</ele>
        <time>2013-06-07T17:24:55Z</time>
      </trkpt>
      <trkpt lat="46.11382" lon="5.82502">
        <ele>374.09</ele>
        <time>2013-06-07T17:24:58Z</time>
      </trkpt>
      <trkpt lat="46.11374" lon="5.82515">
        <ele>376.49</ele>
        <time>2013-06-07T17:25:08Z</time>
      </trkpt>
      <trkpt lat="46.1137" lon="5.82535">
        <ele>377.94</ele>
        <time>2013-06-07T17:25:20Z</time>
      </trkpt>
      <trkpt lat="46.11373" lon="5.82537">
        <ele>378.42</ele>
        <time>2013-06-07T17:25:29Z</time>
      </trkpt>
      <trkpt lat="46.11369" lon="5.82534">
        <ele>377.94</ele>
        <time>2013-06-07T17:25:32Z</time>
      </trkpt>
      <trkpt lat="46.11351" lon="5.82539">
        <ele>376.49</ele>
        <time>2013-06-07T17:25:45Z</time>
      </trkpt>
      <trkpt lat="46.11341" lon="5.82542">
        <ele>376.97</ele>
        <time>2013-06-07T17:25:51Z</time>
      </trkpt>
      <trkpt lat="46.11323" lon="5.82548">
        <ele>377.45</ele>
        <time>2013-06-07T17:26:05Z</time>
      </trkpt>
      <trkpt lat="46.11301" lon="5.82564">
        <ele>377.94</ele>
        <time>2013-06-07T17:26:18Z</time>
      </trkpt>
      <trkpt lat="46.11287" lon="5.82584">
        <ele>377.45</ele>
        <time>2013-06-07T17:26:30Z</time>
      </trkpt>
      <trkpt lat="46.1104" lon="5.82851">
        <ele>364.96</ele>
        <time>2013-06-07T17:30:49Z</time>
      </trkpt>
      <trkpt lat="46.11053" lon="5.82852">
        <ele>363.52</ele>
        <time>2013-06-07T17:31:01Z</time>
      </trkpt>
      <trkpt lat="46.11058" lon="5.82852">
        <ele>364.48</ele>
        <time>2013-06-07T17:31:05Z</time>
      </trkpt>
      <trkpt lat="46.11072" lon="5.82844">
        <ele>364</ele>
        <time>2013-06-07T17:31:18Z</time>
      </trkpt>
      <trkpt lat="46.11086" lon="5.82832">
        <ele>364</ele>
        <time>2013-06-07T17:31:31Z</time>
      </trkpt>
      <trkpt lat="46.11091" lon="5.82821">
        <ele>363.52</ele>
        <time>2013-06-07T17:31:38Z</time>
      </trkpt>
      <trkpt lat="46.11097" lon="5.82817">
        <ele>363.52</ele>
        <time>2013-06-07T17:31:42Z</time>
      </trkpt>
      <trkpt lat="46.11116" lon="5.828">
        <ele>362.55</ele>
        <time>2013-06-07T17:31:57Z</time>
      </trkpt>
      <trkpt lat="46.11138" lon="5.82779">
        <ele>363.52</ele>
        <time>2013-06-07T17:32:14Z</time>
      </trkpt>
      <trkpt lat="46.11144" lon="5.82777">
        <ele>364.96</ele>
        <time>2013-06-07T17:32:17Z</time>
      </trkpt>
      <trkpt lat="46.11153" lon="5.82768">
        <ele>366.88</ele>
        <time>2013-06-07T17:32:24Z</time>
      </trkpt>
      <trkpt lat="46.11169" lon="5.82747">
        <ele>367.84</ele>
        <time>2013-06-07T17:32:38Z</time>
      </trkpt>
      <trkpt lat="46.11172" lon="5.82742">
        <ele>367.84</ele>
        <time>2013-06-07T17:32:41Z</time>
      </trkpt>
      <trkpt lat="46.11188" lon="5.82727">
        <ele>368.8</ele>
        <time>2013-06-07T17:32:55Z</time>
      </trkpt>
      <trkpt lat="46.11199" lon="5.8272">
        <ele>373.61</ele>
        <time>2013-06-07T17:33:07Z</time>
      </trkpt>
      <trkpt lat="46.11207" lon="5.82711">
        <ele>379.86</ele>
        <time>2013-06-07T17:33:19Z</time>
      </trkpt>
      <trkpt lat="46.11207" lon="5.8271">
        <ele>380.34</ele>
        <time>2013-06-07T17:33:20Z</time>
      </trkpt>
      <trkpt lat="46.1121" lon="5.82706">
        <ele>382.26</ele>
        <time>2013-06-07T17:33:23Z</time>
      </trkpt>
      <trkpt lat="46.11228" lon="5.8268">
        <ele>389.47</ele>
        <time>2013-06-07T17:33:37Z</time>
      </trkpt>
      <trkpt lat="46.11247" lon="5.82659">
        <ele>392.84</ele>
        <time>2013-06-07T17:33:50Z</time>
      </trkpt>
      <trkpt lat="46.11258" lon="5.82638">
        <ele>393.32</ele>
        <time>2013-06-07T17:34:00Z</time>
      </trkpt>
      <trkpt lat="46.11263" lon="5.82627">
        <ele>393.8</ele>
        <time>2013-06-07T17:34:06Z</time>
      </trkpt>
      <trkpt lat="46.11271" lon="5.82614">
        <ele>393.8</ele>
        <time>2013-06-07T17:34:12Z</time>
      </trkpt>
      <trkpt lat="46.11286" lon="5.82593">
        <ele>395.72</ele>
        <time>2013-06-07T17:34:25Z</time>
      </trkpt>
      <trkpt lat="46.11304" lon="5.82569">
        <ele>388.51</ele>
        <time>2013-06-07T17:34:36Z</time>
      </trkpt>
      <trkpt lat="46.11314" lon="5.82553">
        <ele>383.7</ele>
        <time>2013-06-07T17:34:43Z</time>
      </trkpt>
      <trkpt lat="46.11326" lon="5.8254">
        <ele>381.3</ele>
        <time>2013-06-07T17:34:52Z</time>
      </trkpt>
      <trkpt lat="46.11339" lon="5.82528">
        <ele>380.82</ele>
        <time>2013-06-07T17:35:01Z</time>
      </trkpt>
      <trkpt lat="46.11351" lon="5.82518">
        <ele>380.34</ele>
        <time>2013-06-07T17:35:09Z</time>
      </trkpt>
      <trkpt lat="46.1137" lon="5.82501">
        <ele>381.78</ele>
        <time>2013-06-07T17:35:23Z</time>
      </trkpt>
      <trkpt lat="46.11371" lon="5.82499">
        <ele>381.78</ele>
        <time>2013-06-07T17:35:24Z</time>
      </trkpt>
      <trkpt lat="46.11381" lon="5.82486">
        <ele>383.22</ele>
        <time>2013-06-07T17:35:32Z</time>
      </trkpt>
      <trkpt lat="46.11385" lon="5.82479">
        <ele>383.7</ele>
        <time>2013-06-07T17:35:36Z</time>
      </trkpt>
      <trkpt lat="46.114" lon="5.82466">
        <ele>383.7</ele>
        <time>2013-06-07T17:35:51Z</time>
      </trkpt>
      <trkpt lat="46.114" lon="5.82465">
        <ele>383.22</ele>
        <time>2013-06-07T17:35:55Z</time>
      </trkpt>
      <trkpt lat="46.11417" lon="5.82448">
        <ele>382.74</ele>
        <time>2013-06-07T17:36:07Z</time>
      </trkpt>
      <trkpt lat="46.11418" lon="5.82449">
        <ele>382.74</ele>
        <time>2013-06-07T17:36:08Z</time>
      </trkpt>
      <trkpt lat="46.11431" lon="5.82455">
        <ele>382.26</ele>
        <time>2013-06-07T17:36:16Z</time>
      </trkpt>
      <trkpt lat="46.11439" lon="5.82462">
        <ele>381.78</ele>
        <time>2013-06-07T17:36:21Z</time>
      </trkpt>
      <trkpt lat="46.11457" lon="5.82481">
        <ele>382.26</ele>
        <time>2013-06-07T17:36:35Z</time>
      </trkpt>
      <trkpt lat="46.11475" lon="5.82502">
        <ele>381.3</ele>
        <time>2013-06-07T17:36:48Z</time>
      </trkpt>
      <trkpt lat="46.11495" lon="5.82525">
        <ele>380.82</ele>
        <time>2013-06-07T17:37:03Z</time>
      </trkpt>
      <trkpt lat="46.11517" lon="5.82549">
        <ele>382.26</ele>
        <time>2013-06-07T17:37:19Z</time>
      </trkpt>
      <trkpt lat="46.1153" lon="5.82564">
        <ele>382.74</ele>
        <time>2013-06-07T17:37:32Z</time>
      </trkpt>
      <trkpt lat="46.11552" lon="5.82575">
        <ele>383.22</ele>
        <time>2013-06-07T17:37:44Z</time>
      </trkpt>
      <trkpt lat="46.11558" lon="5.82568">
        <ele>383.7</ele>
        <time>2013-06-07T17:37:57Z</time>
      </trkpt>
      <trkpt lat="46.11559" lon="5.82566">
        <ele>383.7</ele>
        <time>2013-06-07T17:37:58Z</time>
      </trkpt>
      <trkpt lat="46.11574" lon="5.8253">
        <ele>383.22</ele>
        <time>2013-06-07T17:38:13Z</time>
      </trkpt>
      <trkpt lat="46.11581" lon="5.82513">
        <ele>382.74</ele>
        <time>2013-06-07T17:38:22Z</time>
      </trkpt>
      <trkpt lat="46.11571" lon="5.8253">
        <ele>382.26</ele>
        <time>2013-06-07T17:38:31Z</time>
      </trkpt>
      <trkpt lat="46.11554" lon="5.8257">
        <ele>381.3</ele>
        <time>2013-06-07T17:38:50Z</time>
      </trkpt>
      <trkpt lat="46.11553" lon="5.82581">
        <ele>382.26</ele>
        <time>2013-06-07T17:38:56Z</time>
      </trkpt>
      <trkpt lat="46.11579" lon="5.82567">
        <ele>387.55</ele>
        <time>2013-06-07T17:39:09Z</time>
      </trkpt>
      <trkpt lat="46.11599" lon="5.8255">
        <ele>390.43</ele>
        <time>2013-06-07T17:39:23Z</time>
      </trkpt>
      <trkpt lat="46.11623" lon="5.82534">
        <ele>390.91</ele>
        <time>2013-06-07T17:39:37Z</time>
      </trkpt>
      <trkpt lat="46.11799" lon="5.82697">
        <ele>403.89</ele>
        <time>2013-06-07T17:42:32Z</time>
      </trkpt>
      <trkpt lat="46.11797" lon="5.82704">
        <ele>406.29</ele>
        <time>2013-06-07T17:42:36Z</time>
      </trkpt>
      <trkpt lat="46.118" lon="5.82718">
        <ele>408.22</ele>
        <time>2013-06-07T17:42:42Z</time>
      </trkpt>
      <trkpt lat="46.11801" lon="5.82734">
        <ele>413.5</ele>
        <time>2013-06-07T17:42:59Z</time>
      </trkpt>
      <trkpt lat="46.11799" lon="5.82732">
        <ele>417.35</ele>
        <time>2013-06-07T17:43:09Z</time>
      </trkpt>
      <trkpt lat="46.11801" lon="5.82742">
        <ele>418.79</ele>
        <time>2013-06-07T17:43:31Z</time>
      </trkpt>
      <trkpt lat="46.11801" lon="5.8275">
        <ele>423.6</ele>
        <time>2013-06-07T17:43:51Z</time>
      </trkpt>
      <trkpt lat="46.11804" lon="5.82748">
        <ele>420.23</ele>
        <time>2013-06-07T17:44:16Z</time>
      </trkpt>
      <trkpt lat="46.11804" lon="5.82774">
        <ele>410.62</ele>
        <time>2013-06-07T17:44:29Z</time>
      </trkpt>
      <trkpt lat="46.11799" lon="5.82803">
        <ele>402.93</ele>
        <time>2013-06-07T17:44:44Z</time>
      </trkpt>
      <trkpt lat="46.11796" lon="5.82825">
        <ele>404.37</ele>
        <time>2013-06-07T17:44:57Z</time>
      </trkpt>
      <trkpt lat="46.118" lon="5.82849">
        <ele>404.37</ele>
        <time>2013-06-07T17:45:09Z</time>
      </trkpt>
      <trkpt lat="46.11803" lon="5.82871">
        <ele>409.66</ele>
        <time>2013-06-07T17:45:19Z</time>
      </trkpt>
      <trkpt lat="46.11815" lon="5.82891">
        <ele>411.1</ele>
        <time>2013-06-07T17:45:32Z</time>
      </trkpt>
      <trkpt lat="46.11817" lon="5.82892">
        <ele>411.1</ele>
        <time>2013-06-07T17:45:33Z</time>
      </trkpt>
      <trkpt lat="46.1186" lon="5.82878">
        <ele>417.83</ele>
        <time>2013-06-07T17:45:57Z</time>
      </trkpt>
      <trkpt lat="46.11863" lon="5.82872">
        <ele>418.31</ele>
        <time>2013-06-07T17:46:02Z</time>
      </trkpt>
      <trkpt lat="46.11877" lon="5.82848">
        <ele>408.7</ele>
        <time>2013-06-07T17:46:18Z</time>
      </trkpt>
      <trkpt lat="46.11875" lon="5.8283">
        <ele>405.33</ele>
        <time>2013-06-07T17:46:31Z</time>
      </trkpt>
      <trkpt lat="46.11874" lon="5.82828">
        <ele>404.37</ele>
        <time>2013-06-07T17:46:34Z</time>
      </trkpt>
      <trkpt lat="46.11873" lon="5.82808">
        <ele>400.05</ele>
        <time>2013-06-07T17:46:47Z</time>
      </trkpt>
      <trkpt lat="46.11875" lon="5.82797">
        <ele>395.72</ele>
        <time>2013-06-07T17:46:53Z</time>
      </trkpt>
      <trkpt lat="46.11894" lon="5.82772">
        <ele>388.99</ele>
        <time>2013-06-07T17:47:07Z</time>
      </trkpt>
      <trkpt lat="46.11894" lon="5.82769">
        <ele>388.99</ele>
        <time>2013-06-07T17:47:08Z</time>
      </trkpt>
      <trkpt lat="46.11904" lon="5.82759">
        <ele>385.15</ele>
        <time>2013-06-07T17:47:16Z</time>
      </trkpt>
      <trkpt lat="46.12276" lon="5.82299">
        <ele>435.61</ele>
        <time>2013-06-07T18:01:31Z</time>
      </trkpt>
      <trkpt lat="46.1228" lon="5.82317">
        <ele>432.25</ele>
        <time>2013-06-07T18:01:44Z</time>
      </trkpt>
      <trkpt lat="46.12281" lon="5.82319">
        <ele>432.73</ele>
        <time>2013-06-07T18:01:45Z</time>
      </trkpt>
      <trkpt lat="46.12558" lon="5.82816">
        <ele>513.48</ele>
        <time>2013-06-07T18:09:25Z</time>
      </trkpt>
      <trkpt lat="46.12559" lon="5.8284">
        <ele>507.71</ele>
        <time>2013-06-07T18:09:38Z</time>
      </trkpt>
      <trkpt lat="46.1256" lon="5.82842">
        <ele>502.43</ele>
        <time>2013-06-07T18:09:50Z</time>
      </trkpt>
      <trkpt lat="46.12561" lon="5.82841">
        <ele>500.02</ele>
        <time>2013-06-07T18:10:14Z</time>
      </trkpt>
      <trkpt lat="46.1256" lon="5.82839">
        <ele>498.1</ele>
        <time>2013-06-07T18:10:42Z</time>
      </trkpt>
      <trkpt lat="46.1256" lon="5.82838">
        <ele>498.1</ele>
        <time>2013-06-07T18:10:44Z</time>
      </trkpt>
      <trkpt lat="46.12552" lon="5.82859">
        <ele>493.77</ele>
        <time>2013-06-07T18:13:02Z</time>
      </trkpt>
      <trkpt lat="46.12543" lon="5.82866">
        <ele>500.02</ele>
        <time>2013-06-07T18:13:10Z</time>
      </trkpt>
      <trkpt lat="46.12539" lon="5.82879">
        <ele>500.02</ele>
        <time>2013-06-07T18:13:16Z</time>
      </trkpt>
      <trkpt lat="46.12536" lon="5.8289">
        <ele>500.5</ele>
        <time>2013-06-07T18:13:22Z</time>
      </trkpt>
      <trkpt lat="46.12532" lon="5.82899">
        <ele>499.06</ele>
        <time>2013-06-07T18:13:27Z</time>
      </trkpt>
      <trkpt lat="46.1253" lon="5.82933">
        <ele>497.14</ele>
        <time>2013-06-07T18:13:44Z</time>
      </trkpt>
      <trkpt lat="46.1253" lon="5.82944">
        <ele>496.66</ele>
        <time>2013-06-07T18:13:49Z</time>
      </trkpt>
      <trkpt lat="46.12533" lon="5.83173">
        <ele>514.44</ele>
        <time>2013-06-07T18:15:49Z</time>
      </trkpt>
      <trkpt lat="46.12534" lon="5.83191">
        <ele>508.67</ele>
        <time>2013-06-07T18:15:55Z</time>
      </trkpt>
      <trkpt lat="46.12532" lon="5.83201">
        <ele>502.43</ele>
        <time>2013-06-07T18:16:00Z</time>
      </trkpt>
      <trkpt lat="46.12532" lon="5.8322">
        <ele>500.02</ele>
        <time>2013-06-07T18:16:10Z</time>
      </trkpt>
      <trkpt lat="46.12538" lon="5.83261">
        <ele>480.32</ele>
        <time>2013-06-07T18:16:30Z</time>
      </trkpt>
      <trkpt lat="46.12542" lon="5.8326">
        <ele>488.01</ele>
        <time>2013-06-07T18:16:52Z</time>
      </trkpt>
      <trkpt lat="46.1254" lon="5.83266">
        <ele>482.72</ele>
        <time>2013-06-07T18:16:55Z</time>
      </trkpt>
      <trkpt lat="46.12444" lon="5.83566">
        <ele>478.87</ele>
        <time>2013-06-07T18:19:34Z</time>
      </trkpt>
      <trkpt lat="46.12425" lon="5.83579">
        <ele>485.12</ele>
        <time>2013-06-07T18:19:50Z</time>
      </trkpt>
      <trkpt lat="46.12414" lon="5.83586">
        <ele>485.6</ele>
        <time>2013-06-07T18:19:58Z</time>
      </trkpt>
      <trkpt lat="46.12153" lon="5.83697">
        <ele>519.73</ele>
        <time>2013-06-07T18:25:54Z</time>
      </trkpt>
      <trkpt lat="46.12149" lon="5.83704">
        <ele>523.09</ele>
        <time>2013-06-07T18:26:06Z</time>
      </trkpt>
      <trkpt lat="46.12148" lon="5.83705">
        <ele>524.54</ele>
        <time>2013-06-07T18:26:13Z</time>
      </trkpt>
      <trkpt lat="46.12166" lon="5.83685">
        <ele>521.17</ele>
        <time>2013-06-07T18:26:30Z</time>
      </trkpt>
      <trkpt lat="46.12184" lon="5.83669">
        <ele>519.25</ele>
        <time>2013-06-07T18:26:43Z</time>
      </trkpt>
      <trkpt lat="46.12293" lon="5.84879">
        <ele>664.89</ele>
        <time>2013-06-07T18:40:00Z</time>
      </trkpt>
      <trkpt lat="46.12283" lon="5.84876">
        <ele>649.99</ele>
        <time>2013-06-07T18:40:12Z</time>
      </trkpt>
      <trkpt lat="46.12098" lon="5.85079">
        <ele>713.44</ele>
        <time>2013-06-07T18:45:50Z</time>
      </trkpt>
      <trkpt lat="46.12097" lon="5.8508">
        <ele>713.44</ele>
        <time>2013-06-07T18:45:51Z</time>
      </trkpt>
      <trkpt lat="46.12091" lon="5.85082">
        <ele>713.44</ele>
        <time>2013-06-07T18:45:56Z</time>
      </trkpt>
      <trkpt lat="46.12075" lon="5.85089">
        <ele>710.55</ele>
        <time>2013-06-07T18:46:10Z</time>
      </trkpt>
      <trkpt lat="46.12055" lon="5.85097">
        <ele>711.51</ele>
        <time>2013-06-07T18:46:25Z</time>
      </trkpt>
      <trkpt lat="46.12051" lon="5.85099">
        <ele>712.95</ele>
        <time>2013-06-07T18:46:27Z</time>
      </trkpt>
      <trkpt lat="46.12048" lon="5.85099">
        <ele>714.4</ele>
        <time>2013-06-07T18:46:29Z</time>
      </trkpt>
      <trkpt lat="46.12043" lon="5.85101">
        <ele>714.4</ele>
        <time>2013-06-07T18:46:33Z</time>
      </trkpt>
      <trkpt lat="46.12032" lon="5.85106">
        <ele>716.32</ele>
        <time>2013-06-07T18:46:42Z</time>
      </trkpt>
      <trkpt lat="46.12015" lon="5.85113">
        <ele>717.76</ele>
        <time>2013-06-07T18:46:57Z</time>
      </trkpt>
      <trkpt lat="46.11993" lon="5.85122">
        <ele>719.2</ele>
        <time>2013-06-07T18:47:13Z</time>
      </trkpt>
      <trkpt lat="46.11976" lon="5.8513">
        <ele>721.13</ele>
        <time>2013-06-07T18:47:26Z</time>
      </trkpt>
      <trkpt lat="46.11643" lon="5.85296">
        <ele>755.25</ele>
        <time>2013-06-07T18:51:28Z</time>
      </trkpt>
      <trkpt lat="46.11627" lon="5.85304">
        <ele>751.41</ele>
        <time>2013-06-07T18:51:42Z</time>
      </trkpt>
      <trkpt lat="46.11617" lon="5.85319">
        <ele>751.89</ele>
        <time>2013-06-07T18:51:53Z</time>
      </trkpt>
      <trkpt lat="46.11637" lon="5.8551">
        <ele>802.84</ele>
        <time>2013-06-07T18:55:14Z</time>
      </trkpt>
      <trkpt lat="46.11629" lon="5.85526">
        <ele>774.48</ele>
        <time>2013-06-07T18:55:30Z</time>
      </trkpt>
      <trkpt lat="46.11632" lon="5.85525">
        <ele>774.48</ele>
        <time>2013-06-07T18:55:32Z</time>
      </trkpt>
      <trkpt lat="46.11661" lon="5.85532">
        <ele>776.88</ele>
        <time>2013-06-07T18:55:54Z</time>
      </trkpt>
      <trkpt lat="46.11676" lon="5.85543">
        <ele>774</ele>
        <time>2013-06-07T18:56:08Z</time>
      </trkpt>
      <trkpt lat="46.11686" lon="5.85552">
        <ele>774.96</ele>
        <time>2013-06-07T18:56:16Z</time>
      </trkpt>
      <trkpt lat="46.11695" lon="5.8556">
        <ele>780.25</ele>
        <time>2013-06-07T18:56:24Z</time>
      </trkpt>
      <trkpt lat="46.12092" lon="5.85655">
        <ele>774.48</ele>
        <time>2013-06-07T19:01:12Z</time>
      </trkpt>
      <trkpt lat="46.12093" lon="5.85651">
        <ele>777.36</ele>
        <time>2013-06-07T19:01:29Z</time>
      </trkpt>
      <trkpt lat="46.12075" lon="5.85635">
        <ele>795.63</ele>
        <time>2013-06-07T19:01:39Z</time>
      </trkpt>
      <trkpt lat="46.12051" lon="5.85623">
        <ele>803.32</ele>
        <time>2013-06-07T19:01:50Z</time>
      </trkpt>
      <trkpt lat="46.12033" lon="5.85613">
        <ele>806.68</ele>
        <time>2013-06-07T19:02:00Z</time>
      </trkpt>
      <trkpt lat="46.12016" lon="5.85603">
        <ele>811.01</ele>
        <time>2013-06-07T19:02:09Z</time>
      </trkpt>
      <trkpt lat="46.12014" lon="5.856">
        <ele>810.53</ele>
        <time>2013-06-07T19:02:11Z</time>
      </trkpt>
      <trkpt lat="46.11996" lon="5.85592">
        <ele>811.49</ele>
        <time>2013-06-07T19:02:24Z</time>
      </trkpt>
      <trkpt lat="46.1198" lon="5.85581">
        <ele>807.64</ele>
        <time>2013-06-07T19:02:36Z</time>
      </trkpt>
      <trkpt lat="46.11965" lon="5.85573">
        <ele>808.13</ele>
        <time>2013-06-07T19:02:45Z</time>
      </trkpt>
      <trkpt lat="46.11943" lon="5.8556">
        <ele>808.61</ele>
        <time>2013-06-07T19:03:00Z</time>
      </trkpt>
      <trkpt lat="46.11923" lon="5.85553">
        <ele>810.53</ele>
        <time>2013-06-07T19:03:11Z</time>
      </trkpt>
      <trkpt lat="46.11904" lon="5.85547">
        <ele>809.57</ele>
        <time>2013-06-07T19:03:23Z</time>
      </trkpt>
      <trkpt lat="46.1246" lon="5.86507">
        <ele>1233.51</ele>
        <time>2013-06-07T19:35:58Z</time>
      </trkpt>
      <trkpt lat="46.12467" lon="5.86507">
        <ele>1227.26</ele>
        <time>2013-06-07T19:36:06Z</time>
      </trkpt>
      <trkpt lat="46.12471" lon="5.86507">
        <ele>1236.39</ele>
        <time>2013-06-07T19:36:21Z</time>
      </trkpt>
      <trkpt lat="46.12476" lon="5.86512">
        <ele>1236.39</ele>
        <time>2013-06-07T19:36:39Z</time>
      </trkpt>
      <trkpt lat="46.1248" lon="5.86513">
        <ele>1238.32</ele>
        <time>2013-06-07T19:36:53Z</time>
      </trkpt>
      <trkpt lat="46.12479" lon="5.86513">
        <ele>1238.8</ele>
        <time>2013-06-07T19:36:59Z</time>
      </trkpt>
      <trkpt lat="46.12792" lon="5.86425">
        <ele>1254.66</ele>
        <time>2013-06-07T19:40:48Z</time>
      </trkpt>
      <trkpt lat="46.1279" lon="5.86418">
        <ele>1257.06</ele>
        <time>2013-06-07T19:40:59Z</time>
      </trkpt>
      <trkpt lat="46.12793" lon="5.8642">
        <ele>1256.1</ele>
        <time>2013-06-07T19:41:01Z</time>
      </trkpt>
      <trkpt lat="46.12799" lon="5.86421">
        <ele>1259.46</ele>
        <time>2013-06-07T19:41:16Z</time>
      </trkpt>
      <trkpt lat="46.12805" lon="5.86424">
        <ele>1257.54</ele>
        <time>2013-06-07T19:41:40Z</time>
      </trkpt>
      <trkpt lat="46.13524" lon="5.86301">
        <ele>1411.83</ele>
        <time>2013-06-07T19:54:14Z</time>
      </trkpt>
      <trkpt lat="46.13529" lon="5.86292">
        <ele>1412.31</ele>
        <time>2013-06-07T19:54:24Z</time>
      </trkpt>
      <trkpt lat="46.13537" lon="5.8629">
        <ele>1414.72</ele>
        <time>2013-06-07T19:54:36Z</time>
      </trkpt>
      <trkpt lat="46.13539" lon="5.86287">
        <ele>1415.2</ele>
        <time>2013-06-07T19:54:51Z</time>
      </trkpt>
      <trkpt lat="46.13542" lon="5.86288">
        <ele>1417.6</ele>
        <time>2013-06-07T19:55:13Z</time>
      </trkpt>
      <trkpt lat="46.13542" lon="5.86287">
        <ele>1417.12</ele>
        <time>2013-06-07T19:55:20Z</time>
      </trkpt>
      <trkpt lat="46.13934" lon="5.86527">
        <ele>1515.18</ele>
        <time>2013-06-07T20:03:30Z</time>
      </trkpt>
      <trkpt lat="46.13933" lon="5.86529">
        <ele>1505.08</ele>
        <time>2013-06-07T20:03:37Z</time>
      </trkpt>
      <trkpt lat="46.13935" lon="5.8653">
        <ele>1503.64</ele>
        <time>2013-06-07T20:03:39Z</time>
      </trkpt>
      <trkpt lat="46.13943" lon="5.86535">
        <ele>1507.97</ele>
        <time>2013-06-07T20:03:49Z</time>
      </trkpt>
      <trkpt lat="46.13945" lon="5.86538">
        <ele>1510.85</ele>
        <time>2013-06-07T20:04:02Z</time>
      </trkpt>
      <trkpt lat="46.13952" lon="5.86542">
        <ele>1511.81</ele>
        <time>2013-06-07T20:04:15Z</time>
      </trkpt>
      <trkpt lat="46.13952" lon="5.86542">
        <ele>1513.25</ele>
        <time>2013-06-07T20:04:33Z</time>
      </trkpt>
      <trkpt lat="46.13958" lon="5.86546">
        <ele>1512.29</ele>
        <time>2013-06-07T20:04:38Z</time>
      </trkpt>
      <trkpt lat="46.13967" lon="5.86554">
        <ele>1510.37</ele>
        <time>2013-06-07T20:04:51Z</time>
      </trkpt>
      <trkpt lat="46.13967" lon="5.86551">
        <ele>1511.33</ele>
        <time>2013-06-07T20:05:01Z</time>
      </trkpt>
      <trkpt lat="46.14085" lon="5.86598">
        <ele>1508.93</ele>
        <time>2013-06-07T20:07:19Z</time>
      </trkpt>
      <trkpt lat="46.141" lon="5.86605">
        <ele>1517.58</ele>
        <time>2013-06-07T20:07:33Z</time>
      </trkpt>
      <trkpt lat="46.14107" lon="5.86614">
        <ele>1516.14</ele>
        <time>2013-06-07T20:07:40Z</time>
      </trkpt>
      <trkpt lat="46.14113" lon="5.86617">
        <ele>1514.69</ele>
        <time>2013-06-07T20:07:51Z</time>
      </trkpt>
      <trkpt lat="46.14115" lon="5.86618">
        <ele>1513.73</ele>
        <time>2013-06-07T20:07:54Z</time>
      </trkpt>
      <trkpt lat="46.14118" lon="5.86624">
        <ele>1513.25</ele>
        <time>2013-06-07T20:08:08Z</time>
      </trkpt>
      <trkpt lat="46.14128" lon="5.86632">
        <ele>1512.77</ele>
        <time>2013-06-07T20:08:20Z</time>
      </trkpt>
      <trkpt lat="46.1414" lon="5.86646">
        <ele>1511.81</ele>
        <time>2013-06-07T20:08:34Z</time>
      </trkpt>
      <trkpt lat="46.14144" lon="5.86652">
        <ele>1511.81</ele>
        <time>2013-06-07T20:08:45Z</time>
      </trkpt>
      <trkpt lat="46.1415" lon="5.86662">
        <ele>1510.85</ele>
        <time>2013-06-07T20:09:04Z</time>
      </trkpt>
      <trkpt lat="46.14158" lon="5.86673">
        <ele>1509.89</ele>
        <time>2013-06-07T20:09:13Z</time>
      </trkpt>
      <trkpt lat="46.14159" lon="5.86674">
        <ele>1509.89</ele>
        <time>2013-06-07T20:09:14Z</time>
      </trkpt>
      <trkpt lat="46.14167" lon="5.86689">
        <ele>1508.93</ele>
        <time>2013-06-07T20:09:25Z</time>
      </trkpt>
      <trkpt lat="46.14177" lon="5.86705">
        <ele>1508.93</ele>
        <time>2013-06-07T20:09:37Z</time>
      </trkpt>
      <trkpt lat="46.1418" lon="5.86711">
        <ele>1509.41</ele>
        <time>2013-06-07T20:09:53Z</time>
      </trkpt>
      <trkpt lat="46.14181" lon="5.86713">
        <ele>1509.41</ele>
        <time>2013-06-07T20:09:54Z</time>
      </trkpt>
      <trkpt lat="46.14194" lon="5.86724">
        <ele>1511.33</ele>
        <time>2013-06-07T20:10:06Z</time>
      </trkpt>
      <trkpt lat="46.14204" lon="5.86731">
        <ele>1512.77</ele>
        <time>2013-06-07T20:10:17Z</time>
      </trkpt>
      <trkpt lat="46.14215" lon="5.86734">
        <ele>1514.21</ele>
        <time>2013-06-07T20:10:26Z</time>
      </trkpt>
      <trkpt lat="46.14226" lon="5.86739">
        <ele>1515.18</ele>
        <time>2013-06-07T20:10:36Z</time>
      </trkpt>
      <trkpt lat="46.14238" lon="5.86744">
        <ele>1516.14</ele>
        <time>2013-06-07T20:10:49Z</time>
      </trkpt>
      <trkpt lat="46.14254" lon="5.86749">
        <ele>1516.62</ele>
        <time>2013-06-07T20:11:01Z</time>
      </trkpt>
      <trkpt lat="46.14273" lon="5.86751">
        <ele>1516.62</ele>
        <time>2013-06-07T20:11:16Z</time>
      </trkpt>
      <trkpt lat="46.14277" lon="5.86751">
        <ele>1516.62</ele>
        <time>2013-06-07T20:11:19Z</time>
      </trkpt>
      <trkpt lat="46.14291" lon="5.86746">
        <ele>1517.58</ele>
        <time>2013-06-07T20:11:33Z</time>
      </trkpt>
      <trkpt lat="46.14292" lon="5.86743">
        <ele>1522.39</ele>
        <time>2013-06-07T20:11:52Z</time>
      </trkpt>
      <trkpt lat="46.14292" lon="5.86743">
        <ele>1525.75</ele>
        <time>2013-06-07T20:12:04Z</time>
      </trkpt>
      <trkpt lat="46.14302" lon="5.86736">
        <ele>1530.08</ele>
        <time>2013-06-07T20:12:16Z</time>
      </trkpt>
      <trkpt lat="46.14305" lon="5.86735">
        <ele>1530.08</ele>
        <time>2013-06-07T20:12:20Z</time>
      </trkpt>
      <trkpt lat="46.14309" lon="5.8673">
        <ele>1530.56</ele>
        <time>2013-06-07T20:12:29Z</time>
      </trkpt>
      <trkpt lat="46.14324" lon="5.86719">
        <ele>1533.92</ele>
        <time>2013-06-07T20:12:43Z</time>
      </trkpt>
      <trkpt lat="46.14331" lon="5.86715">
        <ele>1535.84</ele>
        <time>2013-06-07T20:12:49Z</time>
      </trkpt>
      <trkpt lat="46.14344" lon="5.86705">
        <ele>1538.73</ele>
        <time>2013-06-07T20:13:00Z</time>
      </trkpt>
      <trkpt lat="46.14345" lon="5.86704">
        <ele>1539.21</ele>
        <time>2013-06-07T20:13:01Z</time>
      </trkpt>
      <trkpt lat="46.14351" lon="5.86699">
        <ele>1540.17</ele>
        <time>2013-06-07T20:13:08Z</time>
      </trkpt>
      <trkpt lat="46.14361" lon="5.867">
        <ele>1539.69</ele>
        <time>2013-06-07T20:13:20Z</time>
      </trkpt>
      <trkpt lat="46.14378" lon="5.86703">
        <ele>1538.25</ele>
        <time>2013-06-07T20:13:33Z</time>
      </trkpt>
      <trkpt lat="46.14381" lon="5.86704">
        <ele>1538.25</ele>
        <time>2013-06-07T20:13:35Z</time>
      </trkpt>
      <trkpt lat="46.14389" lon="5.86711">
        <ele>1538.25</ele>
        <time>2013-06-07T20:13:47Z</time>
      </trkpt>
      <trkpt lat="46.14389" lon="5.86711">
        <ele>1538.25</ele>
        <time>2013-06-07T20:13:48Z</time>
      </trkpt>
      <trkpt lat="46.14402" lon="5.86707">
        <ele>1540.17</ele>
        <time>2013-06-07T20:14:00Z</time>
      </trkpt>
      <trkpt lat="46.14404" lon="5.86706">
        <ele>1540.65</ele>
        <time>2013-06-07T20:14:02Z</time>
      </trkpt>
      <trkpt lat="46.14419" lon="5.86708">
        <ele>1543.05</ele>
        <time>2013-06-07T20:14:14Z</time>
      </trkpt>
      <trkpt lat="46.14424" lon="5.86706">
        <ele>1544.5</ele>
        <time>2013-06-07T20:14:18Z</time>
      </trkpt>
      <trkpt lat="46.14429" lon="5.86704">
        <ele>1544.98</ele>
        <time>2013-06-07T20:14:23Z</time>
      </trkpt>
      <trkpt lat="46.14441" lon="5.867">
        <ele>1546.9</ele>
        <time>2013-06-07T20:14:36Z</time>
      </trkpt>
      <trkpt lat="46.1444" lon="5.867">
        <ele>1546.42</ele>
        <time>2013-06-07T20:14:45Z</time>
      </trkpt>
      <trkpt lat="46.14443" lon="5.86701">
        <ele>1547.38</ele>
        <time>2013-06-07T20:14:48Z</time>
      </trkpt>
      <trkpt lat="46.14445" lon="5.867">
        <ele>1547.86</ele>
        <time>2013-06-07T20:14:51Z</time>
      </trkpt>
      <trkpt lat="46.14447" lon="5.867">
        <ele>1547.86</ele>
        <time>2013-06-07T20:14:53Z</time>
      </trkpt>
      <trkpt lat="46.14458" lon="5.86699">
        <ele>1551.22</ele>
        <time>2013-06-07T20:15:06Z</time>
      </trkpt>
      <trkpt lat="46.14465" lon="5.86695">
        <ele>1554.59</ele>
        <time>2013-06-07T20:15:17Z</time>
      </trkpt>
      <trkpt lat="46.1447" lon="5.8669">
        <ele>1556.03</ele>
        <time>2013-06-07T20:15:24Z</time>
      </trkpt>
      <trkpt lat="46.14478" lon="5.86682">
        <ele>1561.32</ele>
        <time>2013-06-07T20:15:38Z</time>
      </trkpt>
      <trkpt lat="46.14486" lon="5.86675">
        <ele>1564.2</ele>
        <time>2013-06-07T20:15:49Z</time>
      </trkpt>
      <trkpt lat="46.14499" lon="5.86671">
        <ele>1568.05</ele>
        <time>2013-06-07T20:16:02Z</time>
      </trkpt>
      <trkpt lat="46.14509" lon="5.86673">
        <ele>1572.37</ele>
        <time>2013-06-07T20:16:15Z</time>
      </trkpt>
      <trkpt lat="46.14518" lon="5.86678">
        <ele>1574.78</ele>
        <time>2013-06-07T20:16:27Z</time>
      </trkpt>
      <trkpt lat="46.14527" lon="5.86677">
        <ele>1579.1</ele>
        <time>2013-06-07T20:16:39Z</time>
      </trkpt>
      <trkpt lat="46.14528" lon="5.86673">
        <ele>1580.06</ele>
        <time>2013-06-07T20:16:53Z</time>
      </trkpt>
      <trkpt lat="46.14531" lon="5.86671">
        <ele>1580.54</ele>
        <time>2013-06-07T20:17:08Z</time>
      </trkpt>
      <trkpt lat="46.14533" lon="5.86666">
        <ele>1582.47</ele>
        <time>2013-06-07T20:17:22Z</time>
      </trkpt>
      <trkpt lat="46.14542" lon="5.86665">
        <ele>1586.31</ele>
        <time>2013-06-07T20:17:35Z</time>
      </trkpt>
      <trkpt lat="46.1455" lon="5.86653">
        <ele>1591.6</ele>
        <time>2013-06-07T20:17:46Z</time>
      </trkpt>
      <trkpt lat="46.14566" lon="5.86645">
        <ele>1596.41</ele>
        <time>2013-06-07T20:18:00Z</time>
      </trkpt>
      <trkpt lat="46.14571" lon="5.86642">
        <ele>1597.37</ele>
        <time>2013-06-07T20:18:12Z</time>
      </trkpt>
      <trkpt lat="46.14577" lon="5.86636">
        <ele>1596.89</ele>
        <time>2013-06-07T20:18:18Z</time>
      </trkpt>
      <trkpt lat="46.1458" lon="5.8663">
        <ele>1596.41</ele>
        <time>2013-06-07T20:18:30Z</time>
      </trkpt>
      <trkpt lat="46.1458" lon="5.86631">
        <ele>1596.41</ele>
        <time>2013-06-07T20:18:35Z</time>
      </trkpt>
      <trkpt lat="46.14591" lon="5.86632">
        <ele>1595.45</ele>
        <time>2013-06-07T20:18:47Z</time>
      </trkpt>
      <trkpt lat="46.14592" lon="5.86632">
        <ele>1595.45</ele>
        <time>2013-06-07T20:19:03Z</time>
      </trkpt>
      <trkpt lat="46.14592" lon="5.86631">
        <ele>1594.96</ele>
        <time>2013-06-07T20:19:31Z</time>
      </trkpt>
      <trkpt lat="46.14592" lon="5.86631">
        <ele>1594</ele>
        <time>2013-06-07T20:19:54Z</time>
      </trkpt>
      <trkpt lat="46.14601" lon="5.86637">
        <ele>1594</ele>
        <time>2013-06-07T20:20:07Z</time>
      </trkpt>
      <trkpt lat="46.14608" lon="5.86642">
        <ele>1594.48</ele>
        <time>2013-06-07T20:20:17Z</time>
      </trkpt>
      <trkpt lat="46.14612" lon="5.8665">
        <ele>1595.45</ele>
        <time>2013-06-07T20:20:28Z</time>
      </trkpt>
      <trkpt lat="46.14613" lon="5.86651">
        <ele>1595.45</ele>
        <time>2013-06-07T20:20:48Z</time>
      </trkpt>
      <trkpt lat="46.14613" lon="5.86651">
        <ele>1596.89</ele>
        <time>2013-06-07T20:21:18Z</time>
      </trkpt>
      <trkpt lat="46.14613" lon="5.86651">
        <ele>1596.89</ele>
        <time>2013-06-07T20:21:49Z</time>
      </trkpt>
      <trkpt lat="46.14613" lon="5.8665">
        <ele>1596.89</ele>
        <time>2013-06-07T20:22:18Z</time>
      </trkpt>
      <trkpt lat="46.14611" lon="5.86651">
        <ele>1598.33</ele>
        <time>2013-06-07T20:22:41Z</time>
      </trkpt>
      <trkpt lat="46.14609" lon="5.86649">
        <ele>1597.85</ele>
        <time>2013-06-07T20:22:45Z</time>
      </trkpt>
      <trkpt lat="46.14606" lon="5.86643">
        <ele>1596.89</ele>
        <time>2013-06-07T20:22:58Z</time>
      </trkpt>
      <trkpt lat="46.14599" lon="5.86641">
        <ele>1594.96</ele>
        <time>2013-06-07T20:23:08Z</time>
      </trkpt>
      <trkpt lat="46.1459" lon="5.86651">
        <ele>1593.52</ele>
        <time>2013-06-07T20:23:20Z</time>
      </trkpt>
      <trkpt lat="46.14591" lon="5.86651">
        <ele>1593.04</ele>
        <time>2013-06-07T20:23:22Z</time>
      </trkpt>
      <trkpt lat="46.14583" lon="5.86634">
        <ele>1593.04</ele>
        <time>2013-06-07T20:23:36Z</time>
      </trkpt>
      <trkpt lat="46.1458" lon="5.8663">
        <ele>1593.04</ele>
        <time>2013-06-07T20:23:48Z</time>
      </trkpt>
      <trkpt lat="46.1458" lon="5.8663">
        <ele>1593.04</ele>
        <time>2013-06-07T20:23:51Z</time>
      </trkpt>
      <trkpt lat="46.14585" lon="5.8663">
        <ele>1594</ele>
        <time>2013-06-07T20:24:01Z</time>
      </trkpt>
      <trkpt lat="46.14589" lon="5.86631">
        <ele>1594</ele>
        <time>2013-06-07T20:24:04Z</time>
      </trkpt>
      <trkpt lat="46.14592" lon="5.86633">
        <ele>1593.52</ele>
        <time>2013-06-07T20:24:23Z</time>
      </trkpt>
      <trkpt lat="46.14594" lon="5.86635">
        <ele>1593.52</ele>
        <time>2013-06-07T20:24:39Z</time>
      </trkpt>
      <trkpt lat="46.14594" lon="5.86633">
        <ele>1592.56</ele>
        <time>2013-06-07T20:24:54Z</time>
      </trkpt>
      <trkpt lat="46.14594" lon="5.86635">
        <ele>1592.56</ele>
        <time>2013-06-07T20:24:59Z</time>
      </trkpt>
      <trkpt lat="46.14596" lon="5.86638">
        <ele>1591.6</ele>
        <time>2013-06-07T20:25:03Z</time>
      </trkpt>
      <trkpt lat="46.14603" lon="5.86638">
        <ele>1590.64</ele>
        <time>2013-06-07T20:25:16Z</time>
      </trkpt>
      <trkpt lat="46.14606" lon="5.8664">
        <ele>1590.16</ele>
        <time>2013-06-07T20:25:29Z</time>
      </trkpt>
      <trkpt lat="46.14602" lon="5.86651">
        <ele>1593.04</ele>
        <time>2013-06-07T20:25:42Z</time>
      </trkpt>
      <trkpt lat="46.14604" lon="5.86653">
        <ele>1593.04</ele>
        <time>2013-06-07T20:25:57Z</time>
      </trkpt>
      <trkpt lat="46.14603" lon="5.86652">
        <ele>1593.04</ele>
        <time>2013-06-07T20:26:05Z</time>
      </trkpt>
    </trkseg>
  </trk>
</gpx>